Time;durP1;ratioP1;P1;durP2;ratioP2;P2;SDS_P1;SDS_P2;PMS_P1;PMS_P2;Temp;Humidity;BMP_temperature;BMP_pressure;BME280_temperature;BME280_humidity;BME280_pressure;Samples;Min_cycle;Max_cycle;Signal;HPM_P1;HPM_P2
2022/07/29 00:01:05;;;;;;;1.58;0.70;;;20.60;82.00;;;21.13;71.02;100858.47;5167934;28;20050;-72
2022/07/29 00:03:38;;;;;;;1.08;0.85;;;20.60;82.70;;;21.10;70.78;100857.59;5166564;28;20108;-72
2022/07/29 00:06:10;;;;;;;1.10;0.80;;;20.60;82.60;;;21.08;70.62;100856.72;5167462;28;20113;-72
2022/07/29 00:08:43;;;;;;;1.10;0.80;;;20.60;82.60;;;21.04;70.55;100858.50;5166906;28;20129;-72
2022/07/29 00:11:16;;;;;;;1.17;0.80;;;20.50;82.60;;;21.02;70.78;100848.81;5167193;28;20665;-71
2022/07/29 00:13:48;;;;;;;1.08;0.80;;;20.50;82.90;;;20.99;71.71;100854.13;5167570;28;20114;-72
2022/07/29 00:16:20;;;;;;;0.95;0.80;;;20.50;83.70;;;20.98;72.34;100857.66;5167554;28;20046;-73
2022/07/29 00:18:52;;;;;;;2.47;1.00;;;20.50;84.40;;;20.97;72.67;100855.91;5166005;28;20116;-73
2022/07/29 00:21:25;;;;;;;1.05;0.95;;;20.40;84.80;;;20.97;72.57;100855.91;5167286;28;20114;-73
2022/07/29 00:23:58;;;;;;;1.75;1.02;;;20.40;84.90;;;20.98;72.86;100847.06;5177669;28;20042;-72
2022/07/29 00:26:31;;;;;;;2.45;0.90;;;20.40;85.20;;;20.98;72.69;100845.28;5170246;28;20552;-72
2022/07/29 00:29:05;;;;;;;1.85;1.00;;;20.40;85.30;;;21.00;72.68;100850.63;5176547;28;20041;-72
2022/07/29 00:31:37;;;;;;;2.05;0.90;;;20.40;85.40;;;21.01;72.73;100836.47;5187850;28;20085;-72
2022/07/29 00:35:43;;;;;;;1.27;0.88;;;20.40;85.60;;;20.98;72.81;100837.34;5173501;28;20041;-72
2022/07/29 00:37:00;;;;;;;1.67;0.90;;;20.40;85.80;;;20.96;73.25;100838.25;5167199;28;20046;-72
2022/07/29 00:39:34;;;;;;;2.83;1.30;;;20.40;86.80;;;20.92;73.61;100831.22;5167069;28;20399;-71
2022/07/29 00:42:07;;;;;;;1.23;0.90;;;20.40;86.50;;;20.89;73.53;100833.91;5167528;28;20046;-72
2022/07/29 00:44:41;;;;;;;1.23;0.90;;;20.40;86.70;;;20.85;73.68;100839.19;5167435;28;20050;-72
2022/07/29 00:47:13;;;;;;;1.67;1.55;;;20.30;86.80;;;20.80;74.41;100832.16;5167391;28;20422;-71
2022/07/29 00:49:45;;;;;;;2.00;1.00;;;20.30;87.50;;;20.76;74.98;100826.03;5166822;28;20050;-71
2022/07/29 00:52:18;;;;;;;1.63;0.93;;;20.30;88.20;;;20.72;74.45;100826.94;5166997;28;20046;-72
2022/07/29 00:54:51;;;;;;;1.42;0.82;;;20.20;87.90;;;20.71;74.37;100819.88;5167211;28;20053;-72
2022/07/29 00:57:24;;;;;;;1.02;0.90;;;20.20;88.10;;;20.71;74.92;100817.22;5167002;28;20046;-71
2022/07/29 00:59:56;;;;;;;2.22;1.10;;;20.20;88.60;;;20.69;74.93;100816.38;5166578;28;20506;-71
2022/07/29 01:02:28;;;;;;;2.35;1.20;;;20.20;88.80;;;20.66;75.12;100808.41;5166447;28;20403;-72
2022/07/29 01:05:01;;;;;;;1.52;0.70;;;20.10;89.10;;;20.63;75.39;100808.47;5167048;28;20125;-72
2022/07/29 01:07:35;;;;;;;1.60;0.80;;;20.10;89.40;;;20.61;75.50;100809.38;5166465;28;20162;-72
2022/07/29 01:10:12;;;;;;;1.98;0.90;;;20.10;89.70;;;20.56;75.88;100812.91;5165421;28;20051;-71
2022/07/29 01:12:48;;;;;;;1.40;0.90;;;20.00;90.00;;;20.54;76.20;100806.75;5166474;28;20070;-71
2022/07/29 01:15:21;;;;;;;1.10;0.90;;;20.00;90.20;;;20.52;76.03;100805.88;5166822;28;20053;-71
2022/07/29 01:18:01;;;;;;;0.88;0.73;;;20.00;90.20;;;20.50;75.83;100801.47;5166392;28;20038;-71
2022/07/29 01:20:56;;;;;;;2.13;1.00;;;20.00;90.20;;;20.47;74.41;100796.19;5166874;28;20121;-71
2022/07/29 01:24:09;;;;;;;1.38;1.20;;;20.00;89.70;;;20.47;72.81;100788.25;5166414;28;20403;-71
2022/07/29 01:26:49;;;;;;;2.00;0.90;;;19.90;88.50;;;20.46;71.86;100789.13;5161433;28;20054;-72
2022/07/29 01:29:29;;;;;;;1.55;0.85;;;20.00;87.50;;;20.46;71.26;100783.84;5165998;28;20073;-71
2022/07/29 01:32:07;;;;;;;1.77;1.13;;;19.90;87.40;;;20.47;71.03;100775.00;5166250;28;20069;-71
2022/07/29 01:34:46;;;;;;;1.17;1.08;;;20.00;86.70;;;20.47;71.42;100777.66;5166439;28;20435;-71
2022/07/29 01:37:23;;;;;;;1.02;0.93;;;20.00;86.90;;;20.48;71.72;100779.44;5166305;28;20117;-71
2022/07/29 01:39:58;;;;;;;1.00;0.82;;;20.00;87.30;;;20.47;72.16;100782.94;5165777;28;20038;-72
2022/07/29 01:42:37;;;;;;;0.98;0.70;;;20.00;87.60;;;20.49;71.22;100784.72;5165254;28;20133;-72
2022/07/29 01:45:18;;;;;;;1.00;0.85;;;20.00;86.80;;;20.51;71.36;100785.56;5168498;28;20053;-71
2022/07/29 01:48:01;;;;;;;0.73;0.65;;;20.00;87.00;;;20.53;71.24;100778.50;5168370;28;20049;-71
2022/07/29 01:50:36;;;;;;;1.10;0.80;;;20.00;86.90;;;20.56;71.74;100788.19;5165802;28;20084;-71
2022/07/29 01:53:13;;;;;;;0.70;0.70;;;20.00;87.20;;;20.54;70.99;100780.28;5165859;28;20070;-71
2022/07/29 01:55:47;;;;;;;1.30;0.93;;;20.00;86.80;;;20.53;70.17;100774.97;5165949;28;20052;-72
2022/07/29 01:58:21;;;;;;;2.05;1.15;;;20.00;85.90;;;20.50;70.38;100769.69;5165454;28;20043;-71
2022/07/29 02:00:57;;;;;;;1.88;1.25;;;20.00;85.90;;;20.46;70.33;100767.94;5165493;28;20388;-72
2022/07/29 02:03:33;;;;;;;1.52;1.00;;;20.00;86.00;;;20.43;71.26;100767.94;5164851;28;20089;-72
2022/07/29 02:06:06;;;;;;;1.20;0.95;;;20.00;86.90;;;20.38;71.63;100770.63;5165530;28;20050;-71
2022/07/29 02:08:40;;;;;;;1.15;0.93;;;19.90;87.20;;;20.37;71.19;100767.97;5165498;28;20106;-72
2022/07/29 02:11:12;;;;;;;1.48;1.00;;;19.90;86.90;;;20.35;70.75;100764.47;5165321;28;20042;-72
2022/07/29 02:13:46;;;;;;;1.63;1.40;;;19.90;86.50;;;20.33;70.35;100764.47;5165745;28;20462;-71
2022/07/29 02:16:23;;;;;;;1.52;0.90;;;19.90;86.10;;;20.30;69.94;100765.38;5164917;28;20039;-71
2022/07/29 02:18:58;;;;;;;1.45;1.05;;;19.80;85.80;;;20.29;70.05;100763.63;5164108;28;20045;-71
2022/07/29 02:21:33;;;;;;;1.85;0.90;;;19.80;85.90;;;20.26;70.84;100755.69;5165161;28;20506;-72
2022/07/29 02:24:07;;;;;;;0.80;0.80;;;19.80;86.50;;;20.23;71.48;100752.19;5165672;28;20125;-71
2022/07/29 02:26:41;;;;;;;1.88;1.08;;;19.80;87.10;;;20.14;72.17;100747.78;5165443;28;20046;-71
2022/07/29 02:29:16;;;;;;;1.10;1.00;;;19.70;87.70;;;20.06;73.12;100752.25;5165140;28;20495;-71
2022/07/29 02:31:51;;;;;;;1.58;1.10;;;19.60;88.40;;;19.97;73.67;100749.66;5165118;28;20054;-71
2022/07/29 02:34:25;;;;;;;1.83;1.13;;;19.50;89.00;;;19.90;74.53;100758.50;5165559;28;20047;-71
2022/07/29 02:36:57;;;;;;;1.30;0.98;;;19.50;89.90;;;19.84;74.34;100759.41;5165317;28;20060;-71
2022/07/29 02:39:31;;;;;;;1.15;0.90;;;19.40;89.80;;;19.80;74.59;100757.66;5164928;28;20125;-71
2022/07/29 02:42:08;;;;;;;1.00;0.90;;;19.40;90.30;;;19.74;75.46;100755.91;5164890;28;20058;-71
2022/07/29 02:44:41;;;;;;;2.42;1.20;;;19.30;90.40;;;19.69;76.06;100746.22;5165199;28;20050;-71
2022/07/29 02:47:21;;;;;;;1.30;1.13;;;19.20;90.70;;;19.62;76.36;100752.41;5165069;28;20120;-71
2022/07/29 02:50:01;;;;;;;1.10;1.00;;;19.20;90.90;;;19.56;76.61;100755.94;5164857;28;20045;-72
2022/07/29 02:52:41;;;;;;;1.20;1.10;;;19.10;91.10;;;19.54;76.50;100768.28;5164931;28;20104;-71
2022/07/29 02:55:20;;;;;;;2.40;1.10;;;19.10;91.10;;;19.48;75.73;100766.50;5164999;28;20105;-71
2022/07/29 02:58:00;;;;;;;4.47;1.20;;;19.00;90.90;;;19.48;76.32;100777.09;5180164;28;20043;-71
2022/07/29 03:00:38;;;;;;;2.78;1.10;;;19.00;91.10;;;19.50;76.96;100766.53;5163695;28;20046;-70
2022/07/29 03:03:16;;;;;;;1.77;0.90;;;19.00;91.40;;;19.51;77.34;100769.16;5164895;28;20042;-70
2022/07/29 03:05:48;;;;;;;2.00;1.20;;;19.00;91.60;;;19.51;77.72;100774.47;5165191;28;20050;-72
2022/07/29 03:08:21;;;;;;;1.85;1.10;;;19.10;91.80;;;19.48;77.98;100773.56;5164660;28;20046;-70
2022/07/29 03:10:54;;;;;;;1.55;1.02;;;19.00;92.00;;;19.48;78.73;100773.56;5164985;28;20072;-72
2022/07/29 03:13:27;;;;;;;1.52;1.10;;;19.00;92.30;;;19.48;78.96;100784.16;5164873;28;20054;-72
2022/07/29 03:16:00;;;;;;;2.85;1.15;;;19.00;92.40;;;19.46;79.08;100775.34;5164789;28;20053;-72
2022/07/29 03:18:34;;;;;;;3.63;1.27;;;19.00;92.60;;;19.42;78.45;100781.50;5164561;28;20050;-70
2022/07/29 03:21:07;;;;;;;1.55;1.40;;;19.00;92.40;;;19.38;78.89;100782.41;5179903;28;20058;-70
2022/07/29 03:23:45;;;;;;;2.45;1.20;;;18.90;92.60;;;19.38;79.72;100790.34;5164695;28;20078;-70
2022/07/29 03:26:18;;;;;;;1.40;1.13;;;18.90;92.90;;;19.37;79.86;100793.88;5164671;28;20057;-72
2022/07/29 03:28:50;;;;;;;1.83;1.17;;;18.90;93.10;;;19.35;80.43;100792.97;5168483;28;20110;-71
2022/07/29 03:31:22;;;;;;;1.92;1.13;;;18.90;93.40;;;19.34;81.03;100793.84;5168669;28;20130;-72
2022/07/29 03:33:55;;;;;;;1.80;1.10;;;18.90;93.70;;;19.33;81.31;100794.75;5167280;28;20140;-72
2022/07/29 03:36:28;;;;;;;2.58;1.17;;;18.90;93.90;;;19.33;81.59;100789.47;5168569;28;20077;-73
2022/07/29 03:39:01;;;;;;;2.05;1.48;;;18.90;94.40;;;19.32;82.21;100791.22;5168315;28;20436;-72
2022/07/29 03:41:35;;;;;;;1.42;1.20;;;18.90;94.70;;;19.31;81.74;100796.53;5168433;28;20046;-72
2022/07/29 03:44:08;;;;;;;1.38;1.25;;;18.90;94.30;;;19.29;82.00;100787.69;5168442;28;20063;-72
2022/07/29 03:46:42;;;;;;;2.50;1.30;;;18.80;94.40;;;19.27;82.51;100785.06;5168979;28;20121;-72
2022/07/29 03:49:18;;;;;;;1.83;1.20;;;18.80;94.60;;;19.29;82.78;100782.41;5167969;28;20041;-72
2022/07/29 03:51:50;;;;;;;2.72;1.40;;;18.90;94.90;;;19.30;83.33;100781.53;5168235;28;20101;-72
2022/07/29 03:54:23;;;;;;;2.22;1.23;;;18.80;95.10;;;19.30;83.20;100784.16;5168382;28;20133;-73
2022/07/29 03:56:58;;;;;;;1.17;1.05;;;18.80;95.10;;;19.31;83.39;100785.94;5168189;28;20046;-72
2022/07/29 03:59:33;;;;;;;2.80;1.25;;;18.80;95.30;;;19.28;83.46;100791.22;5167619;28;20042;-71
2022/07/29 04:02:09;;;;;;;1.77;1.33;;;18.80;95.30;;;19.28;83.80;100792.09;5166558;28;20057;-72
2022/07/29 04:04:43;;;;;;;3.03;1.27;;;18.80;95.50;;;19.28;84.01;100802.66;5168050;28;20046;-72
2022/07/29 04:07:16;;;;;;;2.08;1.20;;;18.80;95.60;;;19.28;84.28;100793.88;5168076;28;20073;-72
2022/07/29 04:09:48;;;;;;;3.20;1.45;;;18.80;95.80;;;19.27;84.61;100789.47;5167711;28;20042;-70
2022/07/29 04:12:22;;;;;;;1.70;1.30;;;18.80;96.00;;;19.26;84.68;100799.16;5168033;28;20129;-70
2022/07/29 04:14:54;;;;;;;1.30;1.20;;;18.80;96.10;;;19.27;84.96;100792.09;5167902;28;20514;-70
2022/07/29 04:17:26;;;;;;;1.52;1.27;;;18.80;96.30;;;19.27;84.70;100800.91;5167739;28;20499;-70
2022/07/29 04:19:59;;;;;;;2.13;1.13;;;18.80;96.20;;;19.27;84.09;100800.03;5166412;28;20050;-70
2022/07/29 04:22:32;;;;;;;1.48;1.23;;;18.80;96.10;;;19.28;83.57;100801.78;5167770;28;20046;-73
2022/07/29 04:25:05;;;;;;;4.35;1.33;;;18.80;95.90;;;19.27;83.34;100810.59;5167712;28;20052;-73
2022/07/29 04:27:59;;;;;;;1.38;1.10;;;18.80;95.80;;;19.28;83.04;100807.06;5191065;23;20050;-70
2022/07/29 04:30:30;;;;;;;1.98;1.30;;;18.80;95.70;;;19.30;83.02;100815.88;5187365;28;20049;-70
2022/07/29 04:33:03;;;;;;;3.72;1.60;;;18.80;95.70;;;19.30;82.02;100810.59;5207620;28;20129;-70
2022/07/29 04:35:38;;;;;;;3.13;1.30;;;18.80;95.40;;;19.32;81.25;100816.78;5207865;28;20050;-70
2022/07/29 04:38:11;;;;;;;2.45;1.65;;;18.90;95.10;;;19.39;80.60;100818.53;5207459;28;20119;-71
2022/07/29 04:40:43;;;;;;;2.20;1.30;;;18.90;94.80;;;19.40;79.73;100813.25;5208031;28;20505;-69
2022/07/29 04:43:16;;;;;;;1.60;1.23;;;19.00;94.50;;;19.43;79.05;100818.53;5190021;28;20143;-69
2022/07/29 04:45:48;;;;;;;1.73;1.10;;;19.00;94.20;;;19.49;78.41;100812.34;5190158;28;20053;-71
2022/07/29 04:48:21;;;;;;;4.00;1.50;;;19.00;93.80;;;19.54;77.64;100815.84;5207618;28;20355;-69
2022/07/29 04:50:54;;;;;;;3.03;1.42;;;19.10;93.60;;;19.59;76.80;100813.25;5207830;28;20130;-69
2022/07/29 04:53:27;;;;;;;2.67;1.30;;;19.10;93.20;;;19.57;75.88;100813.22;5207819;28;20048;-70
2022/07/29 04:55:59;;;;;;;3.20;1.42;;;19.20;92.70;;;19.60;75.64;100815.88;5206397;28;20493;-70
2022/07/29 04:58:31;;;;;;;1.95;1.02;;;19.20;92.60;;;19.66;74.91;100820.28;5189447;28;20148;-70
2022/07/29 05:01:04;;;;;;;2.13;1.20;;;19.20;92.30;;;19.73;74.66;100812.34;5189638;28;20055;-69
2022/07/29 05:03:36;;;;;;;3.22;1.40;;;19.30;92.10;;;19.89;74.37;100823.78;5206273;28;20144;-69
2022/07/29 05:06:10;;;;;;;3.20;1.52;;;19.40;92.00;;;20.11;73.59;100819.28;5207547;28;20501;-70
2022/07/29 05:08:42;;;;;;;4.38;1.40;;;19.60;91.80;;;20.36;72.62;100821.81;5206968;28;20042;-70
2022/07/29 05:11:14;;;;;;;5.50;1.60;;;19.80;91.40;;;20.50;71.57;100828.84;5207222;28;20521;-69
2022/07/29 05:13:46;;;;;;;3.78;1.30;;;19.90;90.90;;;20.60;70.79;100827.00;5207475;28;20470;-69
2022/07/29 05:16:18;;;;;;;5.38;1.40;;;20.00;90.80;;;20.68;70.33;100829.63;5205938;28;20046;-71
2022/07/29 05:18:50;;;;;;;1.92;1.33;;;20.10;90.20;;;20.69;70.14;100836.69;5189157;28;20049;-70
2022/07/29 05:21:24;;;;;;;3.10;1.30;;;20.20;90.00;;;20.66;69.80;100834.91;5189285;28;20111;-70
2022/07/29 05:23:58;;;;;;;1.30;1.20;;;20.20;89.60;;;20.66;69.61;100842.84;5207028;28;20073;-71
2022/07/29 05:26:30;;;;;;;3.33;1.50;;;20.20;89.30;;;20.67;69.90;100847.28;5206111;28;20472;-69
2022/07/29 05:29:03;;;;;;;2.35;1.50;;;20.20;89.40;;;20.67;69.51;100849.94;5189017;28;20478;-70
2022/07/29 05:31:35;;;;;;;1.75;1.10;;;20.20;89.00;;;20.68;69.40;100849.03;5206743;28;20136;-70
2022/07/29 05:34:07;;;;;;;1.77;1.20;;;20.20;88.80;;;20.80;69.54;100854.28;5206804;28;20049;-70
2022/07/29 05:36:41;;;;;;;2.20;1.58;;;20.30;88.90;;;21.02;69.52;100848.81;5207075;28;20420;-71
2022/07/29 05:39:13;;;;;;;2.60;1.25;;;20.40;89.20;;;21.32;68.56;100859.22;5206833;28;20075;-70
2022/07/29 05:41:46;;;;;;;2.13;1.25;;;20.70;88.40;;;21.61;66.87;100852.78;5205497;28;20045;-69
2022/07/29 05:44:18;;;;;;;2.95;1.60;;;20.90;87.00;;;21.87;65.96;100863.13;5206496;28;20537;-71
2022/07/29 05:46:50;;;;;;;4.22;1.30;;;21.10;86.00;;;22.16;65.11;100862.81;5206613;28;20045;-69
2022/07/29 05:49:22;;;;;;;3.30;1.88;;;21.40;85.20;;;22.40;63.79;100865.19;5205416;28;20410;-71
2022/07/29 05:51:56;;;;;;;3.90;1.60;;;21.60;83.60;;;22.77;62.41;100877.13;5206583;28;20220;-70
2022/07/29 05:54:28;;;;;;;3.85;1.38;;;21.90;82.40;;;22.90;61.90;100886.69;5206531;28;20091;-69
2022/07/29 05:57:00;;;;;;;4.57;1.55;;;22.10;81.20;;;22.91;61.64;100899.09;5206514;28;20069;-70
2022/07/29 05:59:35;;;;;;;3.45;1.50;;;22.20;80.60;;;22.85;61.33;100902.66;5205984;28;20047;-71
2022/07/29 06:02:08;;;;;;;2.67;1.20;;;22.20;80.00;;;22.83;61.46;100899.16;5206412;28;20180;-71
2022/07/29 06:04:40;;;;;;;3.28;1.33;;;22.20;80.00;;;22.90;61.50;100900.88;5206325;28;20079;-70
2022/07/29 06:07:13;;;;;;;3.78;1.38;;;22.20;79.90;;;23.19;61.70;100907.53;5206301;28;20047;-71
2022/07/29 06:09:46;;;;;;;5.20;1.25;;;22.40;80.10;;;23.51;60.56;100907.88;5205911;28;20494;-70
2022/07/29 06:12:19;;;;;;;3.20;1.30;;;22.70;79.20;;;23.74;59.35;100909.34;5206272;28;20112;-70
2022/07/29 06:14:51;;;;;;;3.35;1.77;;;22.90;77.90;;;23.81;58.73;100917.16;5205971;28;20410;-70
2022/07/29 06:17:23;;;;;;;2.40;1.40;;;23.00;76.90;;;23.72;58.70;100916.44;5206223;28;20068;-71
2022/07/29 06:19:56;;;;;;;2.40;1.40;;;23.00;76.50;;;23.54;59.13;100922.94;5206006;28;20463;-71
2022/07/29 06:22:29;;;;;;;4.25;1.30;;;22.90;76.40;;;23.38;59.53;100932.94;5204709;28;20064;-71
2022/07/29 06:25:03;;;;;;;1.80;1.10;;;22.80;76.50;;;23.26;59.73;100922.47;5206099;28;20128;-71
2022/07/29 06:27:35;;;;;;;3.97;1.33;;;22.70;76.60;;;23.16;59.87;100921.75;5206040;28;20061;-71
2022/07/29 06:30:09;;;;;;;2.58;1.35;;;22.60;76.70;;;23.05;59.99;100923.69;5205532;28;20095;-72
2022/07/29 06:32:41;;;;;;;2.00;1.30;;;22.50;76.70;;;23.03;60.41;100928.16;5205890;28;20049;-72
2022/07/29 06:35:14;;;;;;;3.50;1.50;;;22.40;77.00;;;23.25;60.64;100920.72;5188237;28;20053;-72
2022/07/29 06:37:47;;;;;;;3.47;1.27;;;22.50;77.50;;;23.65;60.02;100928.97;5188189;28;20053;-70
2022/07/29 06:43:09;;;;;;;2.70;1.33;;;23.20;77.50;;;24.54;57.56;100919.34;5205915;28;20053;-71
2022/07/29 06:45:42;;;;;;;3.65;1.42;;;23.50;75.20;;;24.96;55.94;100924.66;5187527;28;20055;-73
2022/07/29 06:48:14;;;;;;;3.25;1.60;;;23.90;73.40;;;25.34;55.15;100918.47;5187740;28;20501;-71
2022/07/29 06:50:46;;;;;;;4.25;1.58;;;24.30;72.50;;;25.63;54.32;100923.09;5187765;28;20045;-73
2022/07/29 06:53:20;;;;;;;2.75;1.50;;;24.60;71.30;;;25.96;52.88;100924.06;5188095;28;20429;-65
2022/07/29 06:55:52;;;;;;;9.90;1.63;;;24.90;69.80;;;26.39;52.28;100917.50;5205626;28;20073;-66
2022/07/29 06:58:25;;;;;;;2.42;1.48;;;25.30;69.10;;;26.73;50.72;100912.97;5205612;28;20041;-67
2022/07/29 07:01:05;;;;;;;4.90;1.65;;;25.60;67.50;;;26.57;50.18;100906.31;5207724;28;20395;-65
2022/07/29 07:03:37;;;;;;;2.15;1.40;;;25.60;66.10;;;26.18;51.07;100916.31;5212383;28;20041;-66
2022/07/29 07:06:10;;;;;;;3.22;1.13;;;25.40;66.30;;;25.79;51.98;100915.59;5212399;28;20490;-68
2022/07/29 07:08:43;;;;;;;2.60;1.38;;;25.10;66.80;;;25.51;53.30;100924.28;5212181;28;20046;-67
2022/07/29 07:11:16;;;;;;;2.05;1.10;;;24.90;67.90;;;25.28;54.08;100914.16;5212289;28;20041;-67
2022/07/29 07:13:48;;;;;;;3.78;1.45;;;24.60;68.70;;;25.15;54.88;100913.56;5212290;28;20057;-67
2022/07/29 07:16:20;;;;;;;1.35;1.00;;;24.50;69.40;;;25.01;55.21;100915.66;5212318;28;20045;-66
2022/07/29 07:18:52;;;;;;;3.35;1.27;;;24.30;69.80;;;24.97;55.13;100919.28;5212363;28;20437;-66
2022/07/29 07:21:24;;;;;;;2.53;1.02;;;24.20;70.10;;;25.03;55.74;100907.59;5212111;28;20045;-67
2022/07/29 07:23:58;;;;;;;1.83;1.27;;;24.20;70.50;;;25.15;55.71;100913.56;5212417;28;20041;-66
2022/07/29 07:26:30;;;;;;;2.05;1.48;;;24.30;71.40;;;25.14;55.48;100906.47;5212310;28;20490;-66
2022/07/29 07:29:03;;;;;;;0.95;0.95;;;24.30;70.60;;;25.05;55.61;100909.38;5212319;28;20124;-66
2022/07/29 07:31:35;;;;;;;3.55;1.30;;;24.30;70.50;;;24.92;55.92;100910.53;5212148;28;20049;-66
2022/07/29 07:34:07;;;;;;;2.50;0.90;;;24.10;71.40;;;24.79;56.37;100906.38;5212289;28;20080;-66
2022/07/29 07:36:39;;;;;;;4.03;1.17;;;24.10;70.90;;;24.68;56.71;100911.06;5212160;28;20147;-67
2022/07/29 07:39:13;;;;;;;2.33;1.13;;;24.00;71.30;;;24.50;57.15;100907.00;5212260;28;20044;-65
2022/07/29 07:41:45;;;;;;;1.83;1.08;;;23.90;72.20;;;24.38;57.71;100912.56;5211884;28;20056;-66
2022/07/29 07:44:17;;;;;;;2.03;1.20;;;23.70;72.10;;;24.24;57.74;100921.69;5212043;28;20049;-68
2022/07/29 07:46:49;;;;;;;2.70;1.00;;;23.60;72.10;;;24.18;58.30;100926.25;5212049;28;20132;-65
2022/07/29 07:49:22;;;;;;;1.00;0.90;;;23.60;72.70;;;24.14;59.42;100922.78;5212065;28;20041;-64
2022/07/29 07:51:54;;;;;;;1.73;1.17;;;23.50;73.70;;;24.10;59.90;100919.28;5194133;28;20046;-66
2022/07/29 07:54:27;;;;;;;1.65;0.90;;;23.50;74.20;;;24.08;60.20;100917.56;5211922;28;20041;-67
2022/07/29 07:57:00;;;;;;;2.35;1.20;;;23.40;75.00;;;23.99;59.63;100910.63;5212004;28;20566;-65
2022/07/29 07:59:32;;;;;;;3.83;1.25;;;23.40;74.10;;;23.87;59.50;100913.53;5212116;28;20033;-66
2022/07/29 08:02:04;;;;;;;3.95;1.20;;;23.30;73.90;;;23.75;59.54;100908.41;5193952;28;20049;-66
2022/07/29 08:04:40;;;;;;;2.35;1.50;;;23.20;73.90;;;23.69;60.06;100912.06;5211939;28;20405;-67
2022/07/29 08:07:14;;;;;;;4.78;1.40;;;23.10;74.30;;;23.67;60.07;100913.88;5191393;28;20143;-68
2022/07/29 08:09:47;;;;;;;1.90;1.33;;;23.10;74.60;;;23.68;60.49;100912.09;5173697;28;20046;-67
2022/07/29 08:12:19;;;;;;;1.80;1.00;;;23.10;74.90;;;23.70;60.39;100902.28;5188391;28;20138;-67
2022/07/29 08:14:52;;;;;;;3.50;1.33;;;23.10;75.00;;;23.73;60.30;100907.53;5187029;28;20049;-67
2022/07/29 08:17:24;;;;;;;2.00;1.20;;;23.10;74.90;;;23.76;60.44;100912.84;5188062;28;20046;-67
2022/07/29 08:19:56;;;;;;;3.00;1.23;;;23.10;74.90;;;23.80;60.42;100903.91;5188067;28;20112;-68
2022/07/29 08:22:28;;;;;;;3.08;1.25;;;23.20;74.90;;;23.97;60.50;100904.44;5187959;28;20453;-68
2022/07/29 08:25:02;;;;;;;2.55;1.02;;;23.30;75.10;;;24.20;60.06;100903.16;5187909;28;20075;-69
2022/07/29 08:27:34;;;;;;;2.05;1.30;;;23.40;75.20;;;24.36;59.58;100912.59;5187303;28;20105;-70
2022/07/29 08:30:11;;;;;;;3.03;1.90;;;23.50;74.60;;;24.51;59.12;100906.94;5206970;28;20438;-66
2022/07/29 08:32:43;;;;;;;2.35;1.40;;;23.70;74.40;;;24.67;58.37;100910.19;5204807;28;20049;-69
2022/07/29 08:35:16;;;;;;;3.65;1.15;;;23.80;73.90;;;25.07;57.38;100909.34;5206744;28;20037;-69
2022/07/29 08:37:48;;;;;;;3.10;1.30;;;24.00;73.30;;;25.33;56.56;100909.59;5207784;28;20046;-69
2022/07/29 08:40:23;;;;;;;4.63;1.33;;;24.10;72.60;;;25.41;56.30;100914.72;5207761;28;20124;-70
2022/07/29 08:42:55;;;;;;;4.28;1.65;;;24.30;72.20;;;25.37;56.53;100905.06;5207941;28;20418;-69
2022/07/29 08:45:29;;;;;;;2.20;1.13;;;24.30;72.50;;;25.34;57.04;100900.66;5207878;28;20121;-69
2022/07/29 08:48:01;;;;;;;2.80;1.55;;;24.30;72.10;;;25.44;56.32;100899.53;5207570;28;20069;-68
2022/07/29 08:50:36;;;;;;;5.05;1.40;;;24.40;71.90;;;25.58;56.16;100901.84;5190096;28;20073;-71
2022/07/29 08:53:12;;;;;;;3.42;1.40;;;24.50;72.40;;;25.52;55.76;100907.34;5207996;28;20128;-69
2022/07/29 08:55:49;;;;;;;2.67;1.50;;;24.50;71.00;;;25.39;56.20;100900.56;5207821;28;20500;-64
2022/07/29 08:58:22;;;;;;;3.75;1.30;;;24.50;71.20;;;25.34;56.33;100902.47;5207445;28;20053;-69
2022/07/29 09:00:56;;;;;;;3.47;1.40;;;24.40;71.30;;;25.29;56.77;100897.22;5206332;28;20457;-70
2022/07/29 09:03:35;;;;;;;2.28;1.00;;;24.40;71.70;;;25.37;57.18;100903.28;5207723;28;20041;-69
2022/07/29 09:06:08;;;;;;;3.45;1.30;;;24.40;72.20;;;25.57;57.04;100899.25;5207565;28;20049;-55
2022/07/29 09:08:40;;;;;;;4.07;1.40;;;24.50;72.00;;;25.72;56.05;100904.16;5207353;28;20124;-57
2022/07/29 09:11:14;;;;;;;4.55;1.23;;;24.60;71.50;;;26.10;55.53;100905.84;5207438;28;20069;-56
2022/07/29 09:13:47;;;;;;;3.38;1.50;;;24.90;71.20;;;26.69;54.16;100897.06;5189637;28;20053;-56
2022/07/29 09:16:19;;;;;;;3.88;1.40;;;25.20;70.40;;;28.00;51.81;100897.25;5207408;28;20068;-57
2022/07/29 09:18:54;;;;;;;2.25;1.40;;;25.90;69.60;;;29.34;48.95;100894.81;5206881;28;20447;-69
2022/07/29 09:21:59;;;;;;;2.90;1.20;;;26.80;67.50;;;30.26;46.87;100904.31;5207027;28;20037;-65
2022/07/29 09:24:41;;;;;;;2.65;1.27;;;27.60;65.90;;;30.69;46.34;100905.03;5204781;28;20049;-65
2022/07/29 09:27:23;;;;;;;4.20;1.63;;;28.10;64.40;;;31.06;45.51;100899.66;5206863;28;20466;-70
2022/07/29 09:30:00;;;;;;;4.18;1.70;;;28.60;62.60;;;30.87;44.54;100901.47;5207220;28;20121;-66
2022/07/29 09:32:33;;;;;;;17.15;7.85;;;28.70;61.00;;;30.47;44.97;100895.25;5207019;28;20072;-66
2022/07/29 09:35:22;;;;;;;16.92;7.57;;;28.60;60.60;;;30.20;46.31;100901.91;5207016;28;20514;-65
2022/07/29 09:37:55;;;;;;;10.38;5.00;;;28.50;61.50;;;30.08;46.50;100905.09;5206882;28;20128;-64
2022/07/29 09:40:29;;;;;;;5.07;2.35;;;28.50;61.40;;;29.87;47.03;100904.25;5206697;28;20046;-64
2022/07/29 09:43:12;;;;;;;5.93;2.13;;;28.40;61.40;;;29.60;47.94;100906.28;5189050;28;20144;-66
2022/07/29 09:45:44;;;;;;;5.05;1.70;;;28.30;62.20;;;29.36;48.25;100900.97;5206794;28;20128;-65
2022/07/29 09:48:18;;;;;;;2.47;1.30;;;28.20;62.00;;;29.26;49.21;100893.34;5206438;28;20050;-66
2022/07/29 09:50:52;;;;;;;4.03;1.40;;;28.10;62.80;;;29.22;48.61;100900.69;5189157;28;20128;-65
2022/07/29 09:53:35;;;;;;;3.47;1.60;;;28.00;62.50;;;29.21;48.78;100896.22;5206579;28;20043;-59
2022/07/29 09:56:07;;;;;;;3.60;1.38;;;28.00;62.60;;;29.32;49.18;100902.03;5188805;28;20052;-70
2022/07/29 09:58:41;;;;;;;2.60;1.13;;;28.10;62.70;;;29.28;49.20;100900.44;5206210;28;20049;-68
2022/07/29 10:01:14;;;;;;;3.08;1.65;;;28.10;63.10;;;29.03;48.55;100900.53;5206245;28;20107;-67
2022/07/29 10:03:53;;;;;;;3.63;1.50;;;27.90;62.40;;;28.70;48.50;100892.00;5206350;28;20115;-68
2022/07/29 10:06:25;;;;;;;3.13;1.50;;;27.70;62.10;;;28.60;48.72;100896.81;5206357;28;20136;-68
2022/07/29 10:09:09;;;;;;;2.30;1.38;;;27.60;62.10;;;28.66;49.19;100893.03;5205956;28;20049;-69
2022/07/29 10:11:41;;;;;;;2.72;1.23;;;27.60;62.60;;;28.68;49.94;100896.50;5206422;28;20048;-69
2022/07/29 10:14:16;;;;;;;3.83;1.48;;;27.60;63.50;;;28.50;50.59;100889.19;5206110;28;20045;-69
2022/07/29 10:16:48;;;;;;;5.05;1.65;;;27.50;63.80;;;28.25;51.42;100890.09;5188453;28;20046;-71
2022/07/29 10:19:21;;;;;;;5.60;1.83;;;27.30;64.20;;;28.01;52.11;100897.19;5205951;28;20453;-71
2022/07/29 10:21:53;;;;;;;2.75;1.42;;;27.10;64.90;;;27.86;52.68;100887.03;5206116;28;20111;-70
2022/07/29 10:24:27;;;;;;;2.75;1.30;;;27.00;65.30;;;27.87;53.43;100893.25;5205942;28;20041;-70
2022/07/29 10:27:02;;;;;;;;;;;26.90;66.30;;;27.67;53.55;100891.25;5206427;28;20406;-70
2022/07/29 10:29:36;;;;;;;6.38;2.13;;;26.80;66.30;;;27.38;54.38;100894.88;5224421;23;19982;-77
2022/07/29 10:32:26;;;;;;;5.97;1.65;;;26.50;66.80;;;27.06;55.55;100894.16;5198851;28;20076;-77
2022/07/29 10:35:23;;;;;;;5.28;1.70;;;26.30;67.70;;;26.89;56.67;100883.94;5204904;28;20045;-78
2022/07/29 10:38:16;;;;;;;3.17;1.30;;;26.10;69.50;;;26.86;56.82;100893.84;5206220;28;20037;-79
2022/07/29 10:43:53;;;;;;;3.35;1.67;;;26.00;69.10;;;26.71;56.74;100896.09;5185989;28;20071;-78
2022/07/29 10:46:28;;;;;;;4.45;1.95;;;25.90;69.20;;;26.68;56.75;100893.50;5185082;28;20481;-77
2022/07/29 10:49:12;;;;;;;4.40;1.30;;;25.80;69.10;;;26.64;56.18;100894.50;5185807;28;20067;-78